Time;durP1;ratioP1;P1;durP2;ratioP2;P2;SDS_P1;SDS_P2;PMS_P1;PMS_P2;Temp;Humidity;BMP_temperature;BMP_pressure;BME280_temperature;BME280_humidity;BME280_pressure;Samples;Min_cycle;Max_cycle;Signal;HPM_P1;HPM_P2
2023/01/08 00:01:31;;;;;;;2.40;1.10;;;;;;;19.09;45.41;100257.56;4964546;28;20097;-70
2023/01/08 00:03:56;;;;;;;2.85;1.17;;;;;;;19.10;45.48;100251.28;4964336;28;20031;-70
2023/01/08 00:06:21;;;;;;;2.70;1.30;;;;;;;19.06;45.47;100249.09;4964783;28;20439;-74
2023/01/08 00:08:47;;;;;;;2.65;1.13;;;;;;;19.08;45.53;100261.19;4964351;28;20112;-72
2023/01/08 00:11:13;;;;;;;2.55;1.17;;;;;;;19.05;45.48;100263.28;4964363;28;20031;-69
2023/01/08 00:13:38;;;;;;;2.40;1.10;;;;;;;19.06;45.52;100263.16;4964117;28;20159;-70
2023/01/08 00:16:05;;;;;;;1.95;1.20;;;;;;;19.02;45.36;100254.66;4964688;28;20030;-70
2023/01/08 00:18:31;;;;;;;2.85;1.10;;;;;;;19.06;45.42;100257.88;4964098;28;20042;-71
2023/01/08 00:20:56;;;;;;;2.92;1.42;;;;;;;19.03;45.38;100258.97;4964426;28;20030;-71
2023/01/08 00:23:22;;;;;;;2.55;1.10;;;;;;;19.02;46.12;100257.28;4964284;28;20038;-70
2023/01/08 00:25:47;;;;;;;2.17;1.10;;;;;;;19.01;45.92;100254.81;4964107;28;20121;-71
2023/01/08 00:28:13;;;;;;;3.72;1.25;;;;;;;19.03;46.21;100258.97;4964183;28;20054;-71
2023/01/08 00:30:39;;;;;;;3.13;1.17;;;;;;;19.00;46.09;100247.88;4963793;28;20842;-69
2023/01/08 00:33:05;;;;;;;4.55;1.30;;;;;;;19.01;45.82;100241.63;4963996;28;20030;-70
2023/01/08 00:35:30;;;;;;;3.25;1.13;;;;;;;19.00;45.64;100239.94;4963988;28;20065;-71
2023/01/08 00:37:56;;;;;;;2.70;1.15;;;;;;;18.99;45.59;100233.00;4963701;28;20061;-70
2023/01/08 00:40:21;;;;;;;2.38;1.10;;;;;;;18.99;45.69;100225.06;4964131;28;20365;-70
2023/01/08 00:42:46;;;;;;;4.50;1.30;;;;;;;19.00;45.62;100224.09;4963771;28;20034;-70
2023/01/08 00:45:12;;;;;;;3.13;1.25;;;;;;;18.97;45.62;100227.03;4964258;28;20574;-69
2023/01/08 00:47:37;;;;;;;3.75;1.40;;;;;;;18.98;45.62;100218.16;4962405;28;20038;-69
2023/01/08 00:50:04;;;;;;;5.80;1.30;;;;;;;18.97;45.53;100213.84;4964375;28;20046;-69
2023/01/08 00:52:29;;;;;;;2.92;1.30;;;;;;;18.99;45.48;100203.94;4963518;28;20047;-69
2023/01/08 00:54:54;;;;;;;4.55;1.58;;;;;;;18.94;45.55;100204.38;4963662;28;20387;-68
2023/01/08 00:57:20;;;;;;;2.47;1.30;;;;;;;18.96;45.54;100213.00;4963847;28;20392;-69
2023/01/08 00:59:45;;;;;;;2.63;1.20;;;;;;;18.96;45.50;100207.72;4963762;28;20058;-70
2023/01/08 01:02:11;;;;;;;3.45;1.30;;;;;;;18.94;45.23;100204.38;4963665;28;20039;-70
2023/01/08 01:04:36;;;;;;;2.67;1.30;;;;;;;18.95;45.60;100205.22;4963838;28;20043;-70
2023/01/08 01:07:02;;;;;;;3.50;1.35;;;;;;;18.94;45.31;100204.38;4963282;28;20035;-71
2023/01/08 01:09:27;;;;;;;4.40;1.50;;;;;;;18.93;45.59;100196.59;4964060;28;20372;-70
2023/01/08 01:11:52;;;;;;;4.22;1.30;;;;;;;18.94;45.51;100193.81;4963307;28;20031;-71
2023/01/08 01:14:18;;;;;;;3.38;1.20;;;;;;;18.90;45.41;100187.19;4963767;28;20471;-71
2023/01/08 01:16:43;;;;;;;3.47;1.30;;;;;;;18.90;45.46;100188.97;4963193;28;20035;-70
2023/01/08 01:19:09;;;;;;;3.38;1.15;;;;;;;18.89;45.41;100182.88;4963893;28;20030;-70
2023/01/08 01:21:34;;;;;;;2.63;1.30;;;;;;;18.90;45.42;100191.59;4963126;28;20038;-71
2023/01/08 01:24:02;;;;;;;4.45;1.60;;;;;;;18.89;45.42;100188.16;4966734;28;20061;-70
2023/01/08 01:26:28;;;;;;;3.28;1.15;;;;;;;18.90;45.33;100195.09;4963702;28;20039;-70
2023/01/08 01:28:55;;;;;;;3.42;1.10;;;;;;;18.89;45.46;100190.78;4963072;28;20045;-70
2023/01/08 01:31:22;;;;;;;2.50;1.30;;;;;;;18.86;45.43;100183.16;4962875;28;20030;-69
2023/01/08 01:33:47;;;;;;;3.28;1.33;;;;;;;18.88;45.47;100191.75;4962671;28;20122;-69
2023/01/08 01:36:15;;;;;;;6.85;1.52;;;;;;;18.85;45.43;100181.50;4962766;28;20435;-70
2023/01/08 01:38:48;;;;;;;3.45;1.80;;;;;;;18.86;45.41;100188.44;4963299;28;20109;-70
2023/01/08 01:41:26;;;;;;;2.97;1.17;;;;;;;18.79;45.42;100185.53;4963127;28;20034;-70
2023/01/08 01:43:52;;;;;;;4.05;1.60;;;;;;;18.83;45.29;100183.41;4963027;28;20387;-71
2023/01/08 01:46:44;;;;;;;4.32;1.67;;;;;;;18.82;45.41;100201.06;4962776;28;20041;-70
2023/01/08 01:49:14;;;;;;;4.32;1.27;;;;;;;18.85;45.36;100214.03;4962564;28;20046;-68
2023/01/08 01:51:46;;;;;;;2.88;1.27;;;;;;;18.80;45.55;100210.94;4962781;28;20082;-69
2023/01/08 01:54:12;;;;;;;2.45;1.20;;;;;;;18.83;45.47;100215.09;4962633;28;20062;-70
2023/01/08 01:56:37;;;;;;;4.20;1.60;;;;;;;18.83;45.37;100223.00;4963261;28;20054;-69
2023/01/08 01:59:04;;;;;;;4.22;1.25;;;;;;;18.79;45.68;100208.47;4968075;28;20027;-70
2023/01/08 02:01:30;;;;;;;2.97;1.40;;;;;;;18.82;45.25;100218.72;4969640;28;20039;-69
2023/01/08 02:03:56;;;;;;;2.92;1.20;;;;;;;18.77;45.42;100227.09;4969045;28;20043;-69
2023/01/08 02:06:27;;;;;;;4.32;1.35;;;;;;;18.80;45.27;100218.03;4969349;28;20049;-69
2023/01/08 02:09:00;;;;;;;2.90;1.17;;;;;;;18.79;45.33;100219.84;4968921;28;20053;-69
2023/01/08 02:11:27;;;;;;;3.28;1.10;;;;;;;18.78;45.36;100206.78;4969381;28;20031;-68
2023/01/08 02:14:00;;;;;;;3.92;1.10;;;;;;;18.76;45.40;100204.28;4975346;28;20048;-69
2023/01/08 02:16:43;;;;;;;2.90;1.30;;;;;;;18.75;45.35;100196.50;4969340;28;20046;-69
2023/01/08 02:19:27;;;;;;;2.58;1.00;;;;;;;18.78;45.23;100185.66;4969418;28;20069;-70
2023/01/08 02:22:18;;;;;;;3.25;1.20;;;;;;;18.76;45.12;100177.88;4968807;28;20038;-70
2023/01/08 02:25:00;;;;;;;2.10;0.90;;;;;;;18.74;45.22;100179.00;4969530;28;20058;-69
2023/01/08 02:27:30;;;;;;;2.25;1.00;;;;;;;18.71;45.42;100179.28;4969205;28;20037;-69
2023/01/08 02:29:56;;;;;;;2.63;1.05;;;;;;;18.74;45.45;100184.28;4969207;28;20039;-70
2023/01/08 02:32:31;;;;;;;2.85;1.00;;;;;;;18.73;45.30;100190.56;4968501;28;20031;-70
2023/01/08 02:34:56;;;;;;;4.00;1.20;;;;;;;18.72;45.05;100178.31;4968879;28;20034;-70
2023/01/08 02:37:22;;;;;;;2.17;0.95;;;;;;;18.71;45.17;100174.84;4969056;28;20117;-72
2023/01/08 02:40:19;;;;;;;3.03;1.02;;;;;;;18.68;45.13;100169.88;4968810;28;20038;-70
2023/01/08 02:43:00;;;;;;;2.13;0.90;;;;;;;18.71;45.13;100176.66;4968648;28;20047;-69
2023/01/08 02:45:43;;;;;;;3.33;1.08;;;;;;;18.71;45.12;100180.13;4968508;28;20062;-68
2023/01/08 02:48:20;;;;;;;3.28;0.90;;;;;;;18.69;45.18;100176.78;4969622;28;20054;-72
2023/01/08 02:50:55;;;;;;;2.25;0.90;;;;;;;18.65;45.23;100170.16;4969101;28;20039;-70
2023/01/08 02:53:29;;;;;;;3.38;1.00;;;;;;;18.64;45.09;100171.13;4968926;28;20064;-69
2023/01/08 02:55:56;;;;;;;;;;;;;;;18.75;45.04;100170.13;4969411;28;20050;-72
2023/01/08 02:58:24;;;;;;;3.13;0.80;;;;;;;18.67;45.29;100155.00;4982831;28;20499;-69
2023/01/08 03:00:52;;;;;;;3.50;1.25;;;;;;;18.66;44.88;100151.53;4968856;28;20051;-70
2023/01/08 03:03:22;;;;;;;2.88;0.98;;;;;;;18.65;45.20;100151.69;4968372;28;20104;-70
2023/01/08 03:05:51;;;;;;;2.03;0.77;;;;;;;18.66;45.22;100154.19;4969036;28;20479;-71
2023/01/08 03:08:17;;;;;;;2.25;0.80;;;;;;;18.66;45.24;100142.78;4968274;28;20620;-69
2023/01/08 03:10:47;;;;;;;2.47;1.00;;;;;;;18.62;45.25;100154.59;4964875;28;20121;-71
2023/01/08 03:13:23;;;;;;;3.88;0.90;;;;;;;18.63;45.30;100154.47;4965163;28;20117;-69
2023/01/08 03:15:56;;;;;;;2.58;0.80;;;;;;;18.65;45.27;100154.31;4966228;28;20496;-70
2023/01/08 03:18:36;;;;;;;2.17;0.80;;;;;;;18.62;45.17;100154.59;4965337;28;20038;-69
2023/01/08 03:21:04;;;;;;;3.30;1.42;;;;;;;18.66;45.13;100150.72;4965232;28;20035;-72
2023/01/08 03:23:33;;;;;;;2.13;0.90;;;;;;;18.62;45.16;100144.88;4980336;28;20093;-69
2023/01/08 03:26:01;;;;;;;2.17;0.88;;;;;;;18.64;45.23;100150.84;4965234;28;20468;-70
2023/01/08 03:28:32;;;;;;;3.50;1.10;;;;;;;18.63;45.27;100146.53;4979681;28;20057;-69
2023/01/08 03:30:58;;;;;;;2.78;1.25;;;;;;;18.62;45.00;100147.50;4965358;28;20049;-70
2023/01/08 03:33:26;;;;;;;2.30;0.80;;;;;;;18.60;45.18;100135.47;4964662;28;20125;-69
2023/01/08 03:35:56;;;;;;;2.17;0.70;;;;;;;18.63;45.11;100137.81;4965106;28;20479;-70
2023/01/08 03:38:26;;;;;;;2.10;0.70;;;;;;;18.61;45.13;100143.22;4964775;28;20050;-69
2023/01/08 03:41:03;;;;;;;2.67;0.90;;;;;;;18.61;45.23;100143.22;4964900;28;20035;-70
2023/01/08 03:43:28;;;;;;;2.90;0.90;;;;;;;18.61;45.21;100135.31;4964953;28;20031;-69
2023/01/08 03:46:01;;;;;;;2.17;0.82;;;;;;;18.61;44.87;100139.75;4965210;28;20090;-69
2023/01/08 03:48:29;;;;;;;2.97;1.00;;;;;;;18.59;45.30;100139.06;4965090;28;20042;-71
2023/01/08 03:50:54;;;;;;;2.53;0.77;;;;;;;18.58;45.11;100140.88;4964899;28;20371;-70
2023/01/08 03:53:19;;;;;;;2.30;0.90;;;;;;;18.59;45.21;100139.06;4979072;28;20046;-71
2023/01/08 03:55:45;;;;;;;3.45;0.98;;;;;;;18.57;45.13;100133.09;4964404;28;20109;-70
2023/01/08 03:58:10;;;;;;;2.72;0.77;;;;;;;18.57;45.06;100127.81;4964721;28;20191;-69
2023/01/08 04:00:35;;;;;;;2.08;1.05;;;;;;;18.58;45.26;100134.75;4964449;28;20053;-70
2023/01/08 04:03:01;;;;;;;1.35;0.70;;;;;;;18.58;44.94;100132.09;4964688;28;20042;-69
2023/01/08 04:05:26;;;;;;;2.67;0.90;;;;;;;18.58;45.03;100134.75;4964637;28;20053;-71
2023/01/08 04:07:55;;;;;;;2.65;0.85;;;;;;;18.57;44.99;100130.47;4964563;28;20483;-70
2023/01/08 04:10:21;;;;;;;2.15;0.80;;;;;;;18.53;45.08;100111.44;4964094;28;20502;-70
2023/01/08 04:12:46;;;;;;;3.20;1.00;;;;;;;18.56;45.17;100116.41;4964193;28;20038;-70
2023/01/08 04:15:11;;;;;;;2.63;0.70;;;;;;;18.53;45.13;100105.34;4964430;28;20042;-70
2023/01/08 04:17:37;;;;;;;3.50;1.02;;;;;;;18.54;45.10;100093.81;4964598;28;20031;-70
2023/01/08 04:20:02;;;;;;;2.75;0.75;;;;;;;18.53;44.94;100092.97;4964299;28;20035;-72
2023/01/08 04:22:28;;;;;;;2.25;0.70;;;;;;;18.56;45.21;100115.59;4964389;28;20086;-70
2023/01/08 04:24:53;;;;;;;2.03;0.80;;;;;;;18.55;44.96;100111.28;4964083;28;21167;-70
2023/01/08 04:27:18;;;;;;;2.15;0.80;;;;;;;18.53;44.72;100113.25;4964081;28;20035;-69
2023/01/08 04:29:43;;;;;;;1.45;0.70;;;;;;;18.54;44.95;100112.28;4964101;28;20034;-69
2023/01/08 04:32:09;;;;;;;1.88;0.60;;;;;;;18.52;44.96;100096.59;4963729;28;20066;-69
2023/01/08 04:34:34;;;;;;;2.88;0.80;;;;;;;18.53;44.87;100092.13;4963959;28;20614;-69
2023/01/08 04:37:00;;;;;;;2.17;0.70;;;;;;;18.43;45.02;100081.63;4963977;28;20146;-70
2023/01/08 04:39:26;;;;;;;4.25;0.90;;;;;;;18.50;45.05;100093.28;4963437;28;20038;-69
2023/01/08 04:41:51;;;;;;;3.78;0.80;;;;;;;18.51;45.04;100096.75;4964165;28;20038;-69
2023/01/08 04:44:16;;;;;;;2.50;0.90;;;;;;;18.52;45.11;100104.50;4963697;28;20043;-69
2023/01/08 04:46:41;;;;;;;3.03;0.80;;;;;;;18.52;45.29;100093.09;4963669;28;20035;-69
2023/01/08 04:49:07;;;;;;;2.93;0.80;;;;;;;18.48;45.05;100088.16;4964046;28;20272;-72
2023/01/08 04:51:32;;;;;;;1.50;0.60;;;;;;;18.48;45.03;100098.69;4963945;28;20428;-69
2023/01/08 04:53:57;;;;;;;2.05;0.77;;;;;;;18.49;45.06;100096.88;4963024;28;20037;-69
2023/01/08 04:56:23;;;;;;;2.30;0.80;;;;;;;18.48;45.05;100100.47;4963592;28;20031;-69
2023/01/08 04:58:48;;;;;;;2.35;0.70;;;;;;;18.47;45.37;100102.31;4963992;28;20071;-70
2023/01/08 05:01:24;;;;;;;2.75;0.80;;;;;;;18.49;45.05;100107.44;4963943;28;20045;-70
2023/01/08 05:03:54;;;;;;;1.92;0.68;;;;;;;18.41;44.96;100094.97;4963778;28;20050;-71
2023/01/08 05:06:20;;;;;;;1.83;0.70;;;;;;;18.47;45.11;100112.84;4963453;28;20106;-71
2023/01/08 05:08:45;;;;;;;2.67;0.75;;;;;;;18.49;45.13;100112.72;4963281;28;20765;-69
2023/01/08 05:11:10;;;;;;;1.55;0.60;;;;;;;18.47;45.03;100102.31;4963705;28;20502;-71
2023/01/08 05:13:36;;;;;;;2.28;0.77;;;;;;;18.48;44.96;100101.34;4963248;28;20102;-70
2023/01/08 05:16:01;;;;;;;2.90;0.90;;;;;;;18.44;45.05;100110.50;4963073;28;20058;-71
2023/01/08 05:18:28;;;;;;;1.10;0.52;;;;;;;18.46;44.89;100110.38;4963394;28;20039;-68
2023/01/08 05:20:53;;;;;;;1.48;0.65;;;;;;;18.45;44.80;100109.53;4963169;28;20073;-69
2023/01/08 05:23:18;;;;;;;1.90;0.68;;;;;;;18.43;44.61;100111.47;4963277;28;20069;-70
2023/01/08 05:25:43;;;;;;;1.67;0.60;;;;;;;18.42;44.68;100093.16;4977791;28;20038;-69
2023/01/08 05:28:09;;;;;;;1.83;0.75;;;;;;;18.43;44.92;100097.47;4961990;28;20046;-71
2023/01/08 05:30:35;;;;;;;3.47;1.00;;;;;;;18.41;44.90;100081.78;4969954;28;20030;-71
2023/01/08 05:33:01;;;;;;;1.77;0.80;;;;;;;18.40;44.95;100072.19;4962184;28;20038;-69
2023/01/08 05:35:26;;;;;;;1.92;0.70;;;;;;;18.42;44.94;100070.25;4963462;28;20045;-68
2023/01/08 05:37:51;;;;;;;2.28;0.75;;;;;;;18.42;44.74;100062.34;4962548;28;20075;-70
2023/01/08 05:40:17;;;;;;;2.45;0.90;;;;;;;18.43;44.88;100074.53;4963074;28;20030;-70
2023/01/08 05:42:42;;;;;;;1.50;0.60;;;;;;;18.41;44.80;100073.03;4962692;28;20038;-71
2023/01/08 05:45:07;;;;;;;2.43;0.70;;;;;;;18.39;44.79;100072.31;4963029;28;20037;-70
2023/01/08 05:47:33;;;;;;;2.85;0.80;;;;;;;18.42;44.74;100077.31;4974188;28;20788;-71
2023/01/08 05:49:58;;;;;;;2.80;0.80;;;;;;;18.40;44.76;100074.81;4962663;28;20062;-70
2023/01/08 05:52:24;;;;;;;1.40;0.60;;;;;;;18.41;44.45;100067.75;4962488;28;20109;-70
2023/01/08 05:54:49;;;;;;;1.77;0.60;;;;;;;18.40;44.27;100077.47;4963178;28;20232;-72
2023/01/08 05:57:14;;;;;;;2.15;0.85;;;;;;;18.41;44.65;100084.41;4962930;28;20038;-71
2023/01/08 05:59:40;;;;;;;2.72;0.70;;;;;;;18.41;44.58;100087.03;4962570;28;20127;-70
2023/01/08 06:02:07;;;;;;;2.15;0.52;;;;;;;18.39;44.47;100083.72;4962628;28;20595;-71
2023/01/08 06:04:32;;;;;;;2.88;0.80;;;;;;;18.37;44.28;100088.28;4962920;28;20038;-70
2023/01/08 06:06:58;;;;;;;2.83;0.70;;;;;;;18.39;44.42;100102.19;4963262;28;20038;-70
2023/01/08 06:09:23;;;;;;;3.10;0.80;;;;;;;18.37;44.61;100098.84;4962508;28;20121;-73
2023/01/08 06:11:48;;;;;;;2.00;0.80;;;;;;;18.37;44.62;100105.94;4963362;28;20100;-70
2023/01/08 06:14:15;;;;;;;2.97;0.70;;;;;;;18.39;44.76;100106.63;4962312;28;20031;-70
2023/01/08 06:16:42;;;;;;;2.03;0.70;;;;;;;18.41;44.82;100105.50;4962690;28;20586;-70
2023/01/08 06:19:09;;;;;;;2.03;0.55;;;;;;;18.39;44.80;100101.34;4962836;28;20039;-70
2023/01/08 06:21:34;;;;;;;1.50;0.57;;;;;;;18.43;44.79;100105.38;4962526;28;20122;-71
2023/01/08 06:23:59;;;;;;;1.52;0.60;;;;;;;18.45;44.82;100093.72;4962659;28;20130;-69
2023/01/08 06:26:25;;;;;;;1.52;0.63;;;;;;;18.49;44.84;100100.34;4962342;28;20035;-69
2023/01/08 06:28:50;;;;;;;5.43;1.00;;;;;;;18.50;44.75;100106.47;4962714;28;20041;-70
2023/01/08 06:31:15;;;;;;;1.80;0.70;;;;;;;18.53;44.81;100103.50;4969752;28;20058;-70
2023/01/08 06:33:40;;;;;;;1.98;0.68;;;;;;;18.56;44.58;100110.31;4962553;28;20126;-69
2023/01/08 06:36:06;;;;;;;2.15;0.75;;;;;;;18.61;44.70;100113.34;4962680;28;20937;-72
2023/01/08 06:38:33;;;;;;;1.75;0.70;;;;;;;18.64;44.42;100118.34;4962729;28;20488;-71
2023/01/08 06:41:03;;;;;;;2.83;0.60;;;;;;;18.65;44.64;100120.00;4962333;28;20042;-73
2023/01/08 06:43:29;;;;;;;1.08;0.50;;;;;;;18.67;44.73;100116.25;4962842;28;20464;-68
2023/01/08 06:45:56;;;;;;;1.23;0.50;;;;;;;18.71;44.42;100127.34;4965850;28;20054;-72
2023/01/08 06:48:22;;;;;;;2.65;0.70;;;;;;;18.73;44.29;100117.47;4966265;28;20042;-70
2023/01/08 06:50:47;;;;;;;1.25;0.50;;;;;;;18.75;44.38;100122.59;4966315;28;20042;-69
2023/01/08 06:53:12;;;;;;;2.45;0.75;;;;;;;18.76;44.39;100130.38;4965924;28;20045;-68
2023/01/08 06:55:38;;;;;;;1.75;0.60;;;;;;;18.77;44.25;100121.50;4974407;28;20101;-68
2023/01/08 06:58:03;;;;;;;2.88;0.60;;;;;;;18.76;44.20;100126.91;4965840;28;20119;-70
2023/01/08 07:00:28;;;;;;;2.47;0.60;;;;;;;18.78;44.15;100131.06;4966578;28;20038;-70
2023/01/08 07:02:54;;;;;;;2.17;0.60;;;;;;;18.78;44.42;100132.88;4965877;28;20034;-70
2023/01/08 07:05:20;;;;;;;1.90;0.70;;;;;;;18.75;44.16;100123.44;4965509;28;20454;-70
2023/01/08 07:07:46;;;;;;;1.83;0.68;;;;;;;18.78;44.25;100125.78;4965952;28;20034;-70
2023/01/08 07:10:11;;;;;;;2.60;0.68;;;;;;;18.80;44.25;100121.19;4966137;28;20386;-70
2023/01/08 07:12:37;;;;;;;2.40;0.57;;;;;;;18.80;44.20;100123.84;4965492;28;20069;-70
2023/01/08 07:15:02;;;;;;;1.80;0.60;;;;;;;18.83;44.09;100127.97;4965092;28;20039;-72
2023/01/08 07:17:28;;;;;;;3.17;0.90;;;;;;;18.80;44.05;100113.28;4965943;28;20038;-72
2023/01/08 07:19:53;;;;;;;2.22;0.65;;;;;;;18.81;43.98;100122.03;4965531;28;20037;-70
2023/01/08 07:22:19;;;;;;;2.35;0.70;;;;;;;18.83;44.07;100115.63;4964961;28;20069;-70
2023/01/08 07:24:45;;;;;;;2.33;0.65;;;;;;;18.76;43.97;100109.25;4965555;28;20121;-70
2023/01/08 07:27:10;;;;;;;2.58;0.60;;;;;;;18.81;43.92;100124.66;4965888;28;20027;-70
2023/01/08 07:29:36;;;;;;;2.05;0.75;;;;;;;18.80;43.98;100115.06;4965570;28;20039;-70
2023/01/08 07:32:01;;;;;;;1.57;0.60;;;;;;;18.78;44.03;100117.03;4965022;28;20042;-70
2023/01/08 07:34:26;;;;;;;1.60;0.60;;;;;;;18.82;44.01;100128.97;4965345;28;20293;-71
2023/01/08 07:36:52;;;;;;;3.45;0.73;;;;;;;18.78;43.83;100125.78;4965400;28;20403;-72
2023/01/08 07:39:17;;;;;;;2.97;0.70;;;;;;;18.82;43.89;100121.06;4965756;28;20034;-71
2023/01/08 07:41:43;;;;;;;1.75;0.65;;;;;;;18.79;44.00;100123.97;4964448;28;20038;-71
2023/01/08 07:44:09;;;;;;;1.90;0.60;;;;;;;18.80;43.93;100123.84;4965070;28;20133;-71
2023/01/08 07:46:34;;;;;;;2.67;0.60;;;;;;;18.77;43.98;100115.34;4965120;28;20065;-68
2023/01/08 07:48:59;;;;;;;1.60;0.70;;;;;;;18.80;43.93;100115.06;4965790;28;20118;-70
2023/01/08 07:51:25;;;;;;;3.35;0.80;;;;;;;18.80;43.94;100115.06;4965640;28;20080;-70
2023/01/08 07:53:50;;;;;;;3.20;0.73;;;;;;;18.76;43.89;100109.25;4968846;28;20039;-71
2023/01/08 07:56:16;;;;;;;2.25;0.80;;;;;;;18.77;43.97;100112.72;4964179;28;20451;-71
2023/01/08 07:58:41;;;;;;;2.05;0.60;;;;;;;18.77;43.84;100112.72;4964562;28;20962;-71
2023/01/08 08:01:09;;;;;;;3.10;0.80;;;;;;;18.76;43.87;100108.44;4964394;28;20034;-70
2023/01/08 08:03:34;;;;;;;3.47;1.00;;;;;;;18.79;43.74;100105.50;4978277;28;20490;-70
2023/01/08 08:06:00;;;;;;;2.22;0.77;;;;;;;18.77;43.93;100099.53;4964741;28;20113;-69
2023/01/08 08:08:25;;;;;;;2.28;0.70;;;;;;;18.79;43.58;100100.22;4964649;28;20034;-70
2023/01/08 08:10:51;;;;;;;4.80;1.15;;;;;;;18.77;43.65;100096.88;4964934;28;20464;-70
2023/01/08 08:13:16;;;;;;;2.65;0.80;;;;;;;18.76;43.75;100087.31;4964105;28;20062;-69
2023/01/08 08:15:41;;;;;;;2.72;0.80;;;;;;;18.77;43.51;100089.81;4964402;28;20109;-69
2023/01/08 08:18:07;;;;;;;2.20;0.55;;;;;;;18.78;43.61;100088.81;4978674;28;20050;-70
2023/01/08 08:20:33;;;;;;;2.25;0.75;;;;;;;18.79;43.58;100076.47;4979321;28;20034;-69
2023/01/08 08:23:07;;;;;;;2.10;0.93;;;;;;;18.76;43.30;100074.94;4963894;28;20057;-70
2023/01/08 08:25:32;;;;;;;1.73;0.55;;;;;;;18.78;43.49;100065.06;4963923;28;20108;-69
2023/01/08 08:27:59;;;;;;;2.15;0.68;;;;;;;18.77;43.42;100073.97;4963996;28;20349;-69
2023/01/08 08:30:26;;;;;;;2.45;0.80;;;;;;;18.76;43.51;100072.31;4963719;28;21231;-69
2023/01/08 08:32:52;;;;;;;2.60;0.68;;;;;;;18.78;43.58;100082.72;4963693;28;20066;-70
2023/01/08 08:35:18;;;;;;;3.15;0.88;;;;;;;18.79;43.51;100071.19;4964543;28;20066;-69
2023/01/08 08:37:43;;;;;;;2.40;0.60;;;;;;;18.79;43.46;100082.56;4964297;28;20082;-69
2023/01/08 08:40:09;;;;;;;2.75;0.75;;;;;;;18.80;43.48;100073.69;4966245;28;20046;-68
2023/01/08 08:42:34;;;;;;;2.33;0.80;;;;;;;18.76;43.47;100074.94;4965687;28;20068;-69
2023/01/08 08:44:59;;;;;;;3.20;0.90;;;;;;;18.79;43.60;100081.75;4965434;28;20467;-68
2023/01/08 08:47:25;;;;;;;3.70;0.98;;;;;;;18.77;43.36;100075.75;4968918;28;20043;-68
2023/01/08 08:49:50;;;;;;;3.13;0.82;;;;;;;18.78;43.56;100074.78;4966267;28;20039;-70
2023/01/08 08:52:15;;;;;;;4.13;0.97;;;;;;;18.74;43.30;100066.34;4963820;28;20093;-71
2023/01/08 08:54:40;;;;;;;3.15;0.77;;;;;;;18.76;43.71;100068.84;4966083;28;20356;-71
2023/01/08 08:57:09;;;;;;;2.95;0.85;;;;;;;18.75;43.62;100068.00;4963750;28;20031;-69
2023/01/08 08:59:35;;;;;;;2.28;0.70;;;;;;;18.77;43.93;100071.34;4964197;28;20093;-71
2023/01/08 09:02:01;;;;;;;3.83;0.85;;;;;;;18.78;44.20;100062.41;4964042;28;20038;-73
2023/01/08 09:04:30;;;;;;;2.35;0.73;;;;;;;18.82;44.43;100062.97;4964071;28;21066;-70
2023/01/08 09:06:55;;;;;;;4.38;1.10;;;;;;;18.80;43.95;100059.63;4963498;28;20467;-72
2023/01/08 09:09:20;;;;;;;5.00;1.05;;;;;;;18.85;44.19;100060.06;4963814;28;20065;-69
2023/01/08 09:11:46;;;;;;;1.90;0.73;;;;;;;18.82;44.40;100052.41;4963616;28;20467;-70
2023/01/08 09:14:11;;;;;;;2.92;0.88;;;;;;;18.88;44.40;100059.75;4963515;28;20141;-70
2023/01/08 09:16:36;;;;;;;3.13;1.00;;;;;;;18.84;44.47;100046.03;4963978;28;20498;-72
2023/01/08 09:19:02;;;;;;;5.38;1.00;;;;;;;18.87;44.59;100044.91;4962291;28;20042;-71
2023/01/08 09:21:28;;;;;;;3.40;0.73;;;;;;;18.91;44.29;100053.34;4962771;28;20391;-71
2023/01/08 09:23:53;;;;;;;3.63;0.90;;;;;;;18.94;44.12;100053.88;4962504;28;20125;-71
2023/01/08 09:26:18;;;;;;;4.05;0.90;;;;;;;18.94;44.23;100045.13;4962495;28;20034;-70
2023/01/08 09:28:43;;;;;;;3.15;0.85;;;;;;;18.93;44.63;100040.81;4975078;28;20542;-69
2023/01/08 09:31:09;;;;;;;3.45;0.80;;;;;;;18.95;44.50;100047.63;4961869;28;20137;-69
2023/01/08 09:33:34;;;;;;;4.53;1.10;;;;;;;18.93;44.77;100035.53;4961932;28;20097;-68
2023/01/08 09:35:59;;;;;;;4.20;1.70;;;;;;;18.94;44.74;100032.75;4960557;28;20066;-67
2023/01/08 09:38:25;;;;;;;5.30;1.30;;;;;;;19.01;45.35;100039.13;4962857;28;20120;-67
2023/01/08 09:41:04;;;;;;;5.50;1.40;;;;;;;18.99;45.89;100029.66;4962933;28;20400;-69
2023/01/08 09:43:33;;;;;;;6.65;1.55;;;;;;;19.05;46.19;100031.72;4962454;28;20129;-67
2023/01/08 09:46:01;;;;;;;5.68;1.60;;;;;;;19.06;46.28;100027.25;4962909;28;20093;-68
2023/01/08 09:48:29;;;;;;;6.47;1.60;;;;;;;19.03;46.55;100023.94;4963070;28;20037;-67
2023/01/08 09:50:55;;;;;;;4.47;1.55;;;;;;;19.02;46.39;100021.44;4962935;28;20038;-69
2023/01/08 09:53:20;;;;;;;7.25;1.45;;;;;;;19.06;46.29;100021.97;4962415;28;20132;-66
2023/01/08 09:55:54;;;;;;;6.43;1.88;;;;;;;19.07;46.26;100026.28;4962525;28;20491;-70
2023/01/08 09:58:32;;;;;;;7.05;1.70;;;;;;;19.13;46.09;100020.41;4962962;28;20035;-75
2023/01/08 10:01:00;;;;;;;7.13;1.38;;;;;;;19.11;45.99;100017.91;4962838;28;20038;-73
2023/01/08 10:03:30;;;;;;;4.70;1.33;;;;;;;19.10;45.85;100010.13;4962854;28;20122;-72
2023/01/08 10:05:56;;;;;;;6.05;1.58;;;;;;;19.13;45.90;100009.84;4962808;28;20188;-74
2023/01/08 10:08:21;;;;;;;5.95;1.77;;;;;;;19.11;45.89;100014.44;4963004;28;20618;-72
2023/01/08 10:10:47;;;;;;;5.57;1.50;;;;;;;19.13;45.58;100015.94;4962377;28;20150;-69
2023/01/08 10:13:13;;;;;;;5.80;1.55;;;;;;;19.10;45.91;100016.25;4961616;28;20436;-74
2023/01/08 10:15:39;;;;;;;5.47;1.50;;;;;;;19.08;45.83;100017.38;4962516;28;20031;-67
2023/01/08 10:18:12;;;;;;;4.40;1.50;;;;;;;19.03;45.80;100000.19;4963189;28;20046;-68
2023/01/08 10:20:38;;;;;;;7.35;1.42;;;;;;;19.09;45.91;100008.47;4967052;28;20045;-68
2023/01/08 10:23:10;;;;;;;7.13;1.60;;;;;;;19.06;45.77;99998.22;4966374;28;20113;-70
2023/01/08 10:25:56;;;;;;;4.53;1.35;;;;;;;19.05;45.61;100004.50;4966587;28;20035;-70
2023/01/08 10:28:24;;;;;;;4.45;1.70;;;;;;;19.05;45.60;99997.38;4966856;28;20042;-70
2023/01/08 10:30:59;;;;;;;4.75;1.38;;;;;;;19.01;45.71;99994.22;4966868;28;20122;-71
2023/01/08 10:33:36;;;;;;;4.78;1.45;;;;;;;19.02;45.70;99998.50;4964805;28;20426;-68
2023/01/08 10:36:06;;;;;;;5.40;1.50;;;;;;;19.02;45.43;99993.22;4966343;28;20031;-69
2023/01/08 10:38:35;;;;;;;4.78;1.30;;;;;;;19.01;45.61;99993.41;4966043;28;20499;-68
2023/01/08 10:41:05;;;;;;;5.53;1.33;;;;;;;18.98;45.48;99985.78;4965835;28;20488;-68
2023/01/08 10:43:40;;;;;;;4.53;1.10;;;;;;;18.97;45.62;99976.19;4965723;28;20142;-67
2023/01/08 10:46:13;;;;;;;4.75;1.52;;;;;;;19.00;45.41;99978.53;4966781;28;20034;-69
2023/01/08 10:48:46;;;;;;;5.18;1.30;;;;;;;18.98;45.37;99977.88;4965997;28;20129;-69
2023/01/08 10:51:19;;;;;;;4.95;1.20;;;;;;;18.97;45.51;99963.81;4966270;28;20035;-68
2023/01/08 10:53:44;;;;;;;7.53;1.10;;;;;;;19.02;45.17;99971.28;4965817;28;20488;-67
2023/01/08 10:56:22;;;;;;;3.70;1.25;;;;;;;19.00;45.50;99966.16;4965796;28;20070;-72
2023/01/08 10:58:48;;;;;;;5.18;1.10;;;;;;;18.97;45.44;99960.34;4965444;28;20031;-69
2023/01/08 11:01:24;;;;;;;3.47;0.93;;;;;;;18.96;45.39;99956.88;4965781;28;20114;-70
2023/01/08 11:03:58;;;;;;;4.30;1.00;;;;;;;18.96;45.48;99948.97;4965839;28;20045;-70
2023/01/08 11:06:30;;;;;;;3.70;1.02;;;;;;;18.94;45.30;99947.44;4965856;28;20046;-68
2023/01/08 11:09:12;;;;;;;4.10;1.33;;;;;;;18.95;45.42;99943.84;4966071;28;20038;-72
2023/01/08 11:11:38;;;;;;;4.72;1.17;;;;;;;18.93;45.44;99937.84;4979971;28;20031;-68
2023/01/08 11:14:13;;;;;;;4.32;1.20;;;;;;;18.93;45.55;99936.06;4965778;28;20105;-69
2023/01/08 11:16:40;;;;;;;6.57;1.30;;;;;;;18.97;45.09;99941.88;4965386;28;20053;-74
2023/01/08 11:19:16;;;;;;;3.28;1.00;;;;;;;18.99;45.21;99921.41;4966731;28;20035;-74
2023/01/08 11:21:41;;;;;;;3.88;0.98;;;;;;;19.01;45.21;99925.56;4966827;28;20062;-70
2023/01/08 11:24:18;;;;;;;6.88;1.00;;;;;;;18.98;45.30;99930.34;4964115;28;20069;-73
2023/01/08 11:26:53;;;;;;;6.80;1.20;;;;;;;18.99;45.45;99916.13;4965634;28;20031;-73
2023/01/08 11:29:21;;;;;;;4.32;1.10;;;;;;;19.01;45.54;99915.00;4967356;28;20042;-73